Main page
METAR-TAF:

METAR-TAF

Airports :

Chengdu Shuangliu International Airport

Chengdu, China

latitude: 30-40N, longitude: 104-01E, elevation: 508 m

Current weather observation

The report was made 18 minutes ago, at 05:00 UTC
Wind 4 kt from variable directions
Temperature 15°C
Humidity 48%
Pressure 1032 hPa
Visibility 10 km or more
Few clouds at a height of 2300 ft

METAR: ZUUU 060500Z VRB02MPS 9999 FEW023 15/04 Q1032 NOSIG

Time: 13:18 (05:18 UTC)

Forecast

The report was made 9 hours and 12 minutes ago, at 20:06 UTC
Forecast valid from 06 at 00 UTC to 06 at 24 UTC
Wind 6 kt from the South/Southwest
Visibility: 2500 m
Scattered clouds at a height of 5000 ft
mist
Becoming
from 06 at 01 UTC to 06 at 02 UTC
Visibility: 3500 m

TAF: ZUUU 052006Z 0600/0624 20003MPS 2500 BR SCT050 TX14/0607Z TN07/0623Z BECMG 0601/0602 3500

Weather observations and forecasts of more than 4000 airports (METAR and TAF reports).

The available stations are represented by yellow and red dots on the map.

Hover mouse over dot to see the name of the station.

Then click to see weather observations and forecasts.

To change the map : click on the green buttons with a black cross to zoom in, on the green button with a dash to zoom out, or on the green arrows for adjacent maps.


METAR-TAF: